Time;durP1;ratioP1;P1;durP2;ratioP2;P2;SDS_P1;SDS_P2;PMS_P1;PMS_P2;Temp;Humidity;BMP_temperature;BMP_pressure;BME280_temperature;BME280_humidity;BME280_pressure;Samples;Min_cycle;Max_cycle;Signal;HPM_P1;HPM_P2
2021/08/27 00:00:58;;;;;;;2.53;0.93;;;12.60;90.00;;;;;;4872937;29;20025;-60
2021/08/27 00:03:24;;;;;;;2.35;0.70;;;12.60;90.00;;;;;;4869641;29;20051;-61
2021/08/27 00:05:51;;;;;;;3.45;1.00;;;12.60;89.80;;;;;;4872412;29;20093;-64
2021/08/27 00:08:17;;;;;;;4.40;2.45;;;12.60;90.00;;;;;;4873185;29;20061;-67
2021/08/27 00:10:44;;;;;;;2.28;1.02;;;12.60;90.10;;;;;;4874655;29;20116;-67
2021/08/27 00:13:11;;;;;;;5.63;1.73;;;12.50;90.00;;;;;;4869428;29;20033;-67
2021/08/27 00:15:38;;;;;;;2.42;1.08;;;12.50;90.00;;;;;;4874086;29;20538;-72
2021/08/27 00:18:05;;;;;;;2.05;0.70;;;12.50;90.00;;;;;;4873249;29;20048;-61
2021/08/27 00:20:31;;;;;;;2.38;1.30;;;12.50;90.00;;;;;;4874501;29;20090;-68
2021/08/27 00:22:58;;;;;;;2.65;0.80;;;12.50;89.90;;;;;;4870899;29;20519;-66
2021/08/27 00:25:25;;;;;;;2.25;1.00;;;12.50;89.90;;;;;;4872946;29;20039;-69
2021/08/27 00:27:51;;;;;;;1.50;0.82;;;12.50;90.00;;;;;;4872595;29;20035;-73
2021/08/27 00:30:18;;;;;;;4.03;1.17;;;12.50;90.00;;;;;;4855540;29;20541;-69
2021/08/27 00:32:44;;;;;;;2.00;0.77;;;12.50;89.80;;;;;;4873817;29;20497;-66
2021/08/27 00:35:11;;;;;;;1.30;0.57;;;12.50;89.80;;;;;;4873680;29;20072;-65
2021/08/27 00:37:38;;;;;;;2.13;0.80;;;12.50;90.10;;;;;;4871434;29;20374;-67
2021/08/27 00:40:05;;;;;;;3.03;1.00;;;12.50;89.60;;;;;;4872813;29;20065;-67
2021/08/27 00:42:32;;;;;;;2.85;0.90;;;12.50;89.80;;;;;;4872946;29;20029;-66
2021/08/27 00:44:58;;;;;;;2.60;1.15;;;12.40;90.10;;;;;;4875246;29;20056;-63
2021/08/27 00:47:25;;;;;;;4.32;0.80;;;12.40;90.20;;;;;;4872110;29;20027;-66
2021/08/27 00:49:52;;;;;;;1.90;0.73;;;12.40;90.20;;;;;;4872464;29;20040;-65
2021/08/27 00:52:18;;;;;;;3.60;0.95;;;12.40;90.20;;;;;;4872624;29;20069;-68
2021/08/27 00:54:49;;;;;;;3.50;1.08;;;12.40;90.00;;;;;;4874004;29;20041;-65
2021/08/27 00:57:15;;;;;;;2.17;0.70;;;12.40;89.00;;;;;;4871313;29;20548;-65
2021/08/27 00:59:42;;;;;;;3.83;0.70;;;12.40;88.80;;;;;;4875674;29;20480;-66
2021/08/27 01:02:09;;;;;;;0.45;0.25;;;12.30;88.70;;;;;;4875066;29;20161;-63
2021/08/27 01:04:37;;;;;;;1.50;0.90;;;12.30;87.90;;;;;;4872661;29;20031;-65
2021/08/27 01:07:09;;;;;;;1.38;0.30;;;12.30;86.90;;;;;;4870611;29;20025;-67
2021/08/27 01:10:17;;;;;;;0.82;0.38;;;12.20;86.40;;;;;;4866909;29;20067;-65
2021/08/27 01:13:07;;;;;;;2.78;0.40;;;12.20;86.20;;;;;;4790751;29;20042;-67
2021/08/27 01:15:52;;;;;;;1.35;0.40;;;12.20;86.20;;;;;;4854864;29;20080;-63
2021/08/27 01:18:51;;;;;;;2.20;0.70;;;12.10;86.90;;;;;;4874116;29;20671;-62
2021/08/27 01:21:24;;;;;;;3.42;0.95;;;12.20;87.50;;;;;;4873491;29;20021;-62
2021/08/27 01:23:58;;;;;;;1.17;0.60;;;12.10;87.60;;;;;;4875206;29;20025;-61
2021/08/27 01:26:33;;;;;;;3.58;0.52;;;12.10;87.60;;;;;;4871230;29;20022;-62
2021/08/27 01:29:04;;;;;;;1.50;1.08;;;12.10;88.00;;;;;;4874567;29;20045;-61
2021/08/27 01:31:53;;;;;;;1.73;0.80;;;12.10;88.30;;;;;;4872398;29;20045;-61
2021/08/27 01:34:29;;;;;;;3.38;1.20;;;12.10;88.70;;;;;;4871113;29;20037;-61
2021/08/27 01:36:56;;;;;;;3.13;1.38;;;12.10;88.50;;;;;;4863803;29;20166;-61
2021/08/27 01:39:32;;;;;;;4.38;1.50;;;12.10;88.40;;;;;;4856232;29;20559;-61
2021/08/27 01:42:03;;;;;;;4.38;1.70;;;12.10;88.70;;;;;;4871694;29;20115;-63
2021/08/27 01:44:29;;;;;;;5.28;2.30;;;12.10;88.90;;;;;;4867246;29;20034;-62
2021/08/27 01:46:58;;;;;;;2.60;1.13;;;12.10;88.90;;;;;;4868837;29;20025;-63
2021/08/27 01:49:29;;;;;;;4.38;1.85;;;12.10;88.80;;;;;;4874542;29;20126;-64
2021/08/27 01:52:00;;;;;;;4.50;1.35;;;12.10;88.80;;;;;;4873012;29;20058;-63
2021/08/27 01:54:29;;;;;;;2.55;1.13;;;12.10;89.00;;;;;;4870434;29;20045;-64
2021/08/27 01:56:57;;;;;;;4.43;1.52;;;12.10;89.10;;;;;;4869287;29;20044;-62
2021/08/27 01:59:29;;;;;;;5.07;0.90;;;12.10;89.00;;;;;;4870742;29;20481;-66
2021/08/27 02:01:56;;;;;;;3.22;0.70;;;12.10;89.10;;;;;;4870420;29;20044;-66
2021/08/27 02:04:24;;;;;;;1.80;0.77;;;12.10;89.30;;;;;;4873669;29;20053;-63
2021/08/27 02:06:52;;;;;;;1.95;0.60;;;12.10;89.30;;;;;;4871981;29;20073;-64
2021/08/27 02:09:19;;;;;;;4.15;1.13;;;12.10;89.30;;;;;;4871360;29;20600;-62
2021/08/27 02:11:47;;;;;;;6.10;1.17;;;12.10;89.20;;;;;;4874359;29;20029;-65
2021/08/27 02:14:15;;;;;;;6.95;1.10;;;12.00;89.20;;;;;;4874598;29;20044;-63
2021/08/27 02:16:42;;;;;;;4.63;1.70;;;12.10;89.00;;;;;;4876274;29;20485;-68
2021/08/27 02:19:08;;;;;;;4.60;1.27;;;12.10;89.00;;;;;;4877765;29;20116;-64
2021/08/27 02:21:41;;;;;;;7.50;1.83;;;12.10;89.10;;;;;;4873690;29;20025;-65
2021/08/27 02:24:17;;;;;;;6.65;0.90;;;12.10;89.50;;;;;;4875062;29;20032;-65
2021/08/27 02:26:45;;;;;;;2.85;0.90;;;12.10;89.10;;;;;;4876989;29;20025;-63
2021/08/27 02:29:14;;;;;;;6.28;2.22;;;12.00;89.10;;;;;;4877922;29;20024;-62
2021/08/27 02:31:52;;;;;;;2.92;1.00;;;12.00;89.20;;;;;;4871751;29;20036;-65
2021/08/27 02:34:19;;;;;;;5.43;1.15;;;12.10;89.20;;;;;;4875460;29;20112;-63
2021/08/27 02:36:50;;;;;;;3.95;1.17;;;12.00;88.70;;;;;;4870468;29;20105;-64
2021/08/27 02:39:19;;;;;;;6.55;1.90;;;12.00;89.00;;;;;;4868367;29;20111;-66
2021/08/27 02:41:45;;;;;;;2.53;0.98;;;12.00;89.10;;;;;;4877339;29;20057;-66
2021/08/27 02:44:12;;;;;;;6.32;0.98;;;12.00;89.20;;;;;;4876172;29;20033;-63
2021/08/27 02:46:38;;;;;;;5.30;1.00;;;12.00;89.30;;;;;;4876290;29;20029;-63
2021/08/27 02:49:05;;;;;;;6.22;1.65;;;12.00;89.60;;;;;;4875266;29;20097;-60
2021/08/27 02:51:39;;;;;;;11.45;3.13;;;12.00;89.70;;;;;;4876564;29;20032;-61
2021/08/27 02:54:08;;;;;;;30.85;21.55;;;12.00;88.90;;;;;;4875257;29;20430;-62
2021/08/27 02:56:39;;;;;;;8.75;4.68;;;12.00;87.50;;;;;;4874386;29;20457;-61
2021/08/27 02:59:11;;;;;;;4.80;1.25;;;12.10;85.80;;;;;;4876218;29;20029;-61
2021/08/27 03:01:48;;;;;;;1.73;0.57;;;12.00;84.80;;;;;;4872636;29;20047;-63
2021/08/27 03:04:38;;;;;;;4.95;1.23;;;12.10;83.70;;;;;;4869525;29;20120;-65
2021/08/27 03:07:08;;;;;;;1.65;0.77;;;12.00;82.70;;;;;;4876144;29;20135;-63
2021/08/27 03:09:42;;;;;;;0.85;0.75;;;12.00;83.30;;;;;;4875059;29;20486;-66
2021/08/27 03:12:12;;;;;;;3.22;1.10;;;11.90;83.90;;;;;;4876349;29;20082;-62
2021/08/27 03:14:47;;;;;;;4.85;1.92;;;11.90;84.00;;;;;;4875101;29;20037;-62
2021/08/27 03:17:56;;;;;;;7.75;1.17;;;11.80;83.90;;;;;;4875903;29;20028;-66
2021/08/27 03:21:05;;;;;;;2.08;0.98;;;11.80;84.50;;;;;;4857201;29;20442;-64
2021/08/27 03:24:11;;;;;;;3.75;1.00;;;11.80;85.50;;;;;;4871938;29;20061;-61
2021/08/27 03:27:17;;;;;;;7.10;2.10;;;11.80;85.40;;;;;;4872037;29;20037;-64
2021/08/27 03:30:30;;;;;;;2.85;1.10;;;11.80;85.90;;;;;;4875551;29;20421;-63
2021/08/27 03:33:42;;;;;;;7.03;1.58;;;11.70;86.30;;;;;;4871791;29;20033;-64
2021/08/27 03:36:09;;;;;;;6.88;1.65;;;11.70;86.00;;;;;;4868800;29;20392;-66
2021/08/27 03:39:15;;;;;;;3.90;1.25;;;11.70;85.60;;;;;;4873358;29;20025;-61
2021/08/27 03:42:24;;;;;;;5.60;1.92;;;11.70;85.30;;;;;;4873333;29;20062;-65
2021/08/27 03:44:51;;;;;;;8.45;1.58;;;11.80;84.40;;;;;;4874809;29;20064;-62
2021/08/27 03:47:18;;;;;;;4.75;1.67;;;11.80;83.90;;;;;;4872614;29;20033;-63
2021/08/27 03:49:47;;;;;;;12.85;2.58;;;11.90;83.70;;;;;;4871908;29;20532;-61
2021/08/27 03:52:14;;;;;;;8.02;2.25;;;11.90;83.70;;;;;;4872638;29;20021;-67
2021/08/27 03:54:41;;;;;;;8.43;1.77;;;12.00;83.30;;;;;;4874301;29;20041;-63
2021/08/27 03:57:09;;;;;;;7.10;1.42;;;12.00;83.20;;;;;;4874056;29;20408;-63
2021/08/27 03:59:37;;;;;;;8.80;2.70;;;12.00;80.90;;;;;;4871486;29;20177;-65
2021/08/27 04:02:04;;;;;;;11.35;2.75;;;12.00;80.80;;;;;;4871816;29;20029;-64
2021/08/27 04:04:32;;;;;;;11.85;5.10;;;11.90;78.20;;;;;;4872360;29;20029;-63
2021/08/27 04:07:06;;;;;;;11.68;4.35;;;11.90;76.50;;;;;;4877221;29;20087;-66
2021/08/27 04:09:35;;;;;;;6.05;1.52;;;12.00;76.80;;;;;;4873598;29;20389;-61
2021/08/27 04:12:05;;;;;;;10.68;3.08;;;11.90;75.10;;;;;;4875452;29;20556;-64
2021/08/27 04:14:32;;;;;;;9.05;2.72;;;11.90;77.90;;;;;;4871748;29;20037;-57
2021/08/27 04:16:59;;;;;;;29.13;18.55;;;11.80;79.50;;;;;;4874445;29;20036;-62
2021/08/27 04:19:25;;;;;;;15.18;3.50;;;11.70;81.50;;;;;;4875372;29;20032;-60
2021/08/27 04:21:52;;;;;;;4.95;2.17;;;11.60;82.60;;;;;;4858604;29;20489;-62
2021/08/27 04:24:18;;;;;;;20.65;2.92;;;11.60;84.40;;;;;;4873629;29;20025;-62
2021/08/27 04:26:45;;;;;;;12.73;2.70;;;11.60;83.40;;;;;;4873895;29;20036;-64
2021/08/27 04:29:11;;;;;;;10.02;1.50;;;11.70;82.40;;;;;;4874291;29;20031;-65
2021/08/27 04:31:39;;;;;;;8.02;1.92;;;11.60;81.70;;;;;;4874009;29;20120;-63
2021/08/27 04:34:06;;;;;;;8.15;1.60;;;11.70;82.10;;;;;;4875326;29;20481;-60
2021/08/27 04:36:32;;;;;;;7.57;1.90;;;11.70;81.60;;;;;;4873056;29;20111;-62
2021/08/27 04:38:59;;;;;;;7.55;3.25;;;11.70;79.20;;;;;;4874645;29;20021;-59
2021/08/27 04:41:26;;;;;;;15.15;2.25;;;11.70;78.30;;;;;;4871676;29;20013;-63
2021/08/27 04:43:54;;;;;;;12.18;3.25;;;11.80;79.00;;;;;;4873748;29;20471;-60
2021/08/27 04:46:20;;;;;;;7.82;2.30;;;11.80;79.00;;;;;;4874150;29;20052;-64
2021/08/27 04:48:47;;;;;;;6.22;3.08;;;11.80;79.10;;;;;;4873321;29;20024;-63
2021/08/27 04:51:13;;;;;;;9.10;2.63;;;11.80;77.70;;;;;;4873234;29;20417;-59
2021/08/27 04:53:40;;;;;;;9.00;1.90;;;11.70;77.00;;;;;;4869101;29;20506;-66
2021/08/27 04:56:06;;;;;;;8.43;2.40;;;11.70;78.00;;;;;;4861644;29;20201;-66
2021/08/27 04:58:33;;;;;;;5.85;1.42;;;11.70;79.20;;;;;;4852944;29;20030;-65
2021/08/27 05:00:59;;;;;;;7.80;1.67;;;11.80;79.40;;;;;;4853565;29;20026;-65
2021/08/27 05:03:26;;;;;;;8.23;2.10;;;11.80;78.30;;;;;;4854127;29;20073;-63
2021/08/27 05:05:52;;;;;;;5.55;2.15;;;11.80;78.20;;;;;;4853158;29;20070;-63
2021/08/27 05:08:19;;;;;;;6.97;2.28;;;11.80;77.80;;;;;;4852877;29;20064;-61
2021/08/27 05:10:45;;;;;;;3.70;1.25;;;11.80;77.30;;;;;;4851701;29;20034;-63
2021/08/27 05:13:12;;;;;;;5.20;2.05;;;11.80;77.40;;;;;;4853816;29;20092;-65
2021/08/27 05:15:38;;;;;;;6.75;2.42;;;11.80;77.90;;;;;;4837043;29;20600;-64
2021/08/27 05:18:05;;;;;;;6.70;1.40;;;11.80;77.60;;;;;;4853306;29;20029;-67
2021/08/27 05:20:31;;;;;;;5.68;1.15;;;11.90;78.60;;;;;;4851841;29;20385;-66
2021/08/27 05:22:58;;;;;;;8.73;1.75;;;11.90;78.70;;;;;;4855025;29;20601;-64
2021/08/27 05:25:26;;;;;;;4.57;1.60;;;11.90;79.60;;;;;;4854624;29;20049;-66
2021/08/27 05:27:52;;;;;;;4.65;2.00;;;11.90;79.80;;;;;;4850766;29;20064;-64
2021/08/27 05:30:19;;;;;;;4.90;1.52;;;11.90;80.90;;;;;;4836893;29;20087;-62
2021/08/27 05:32:48;;;;;;;5.65;2.42;;;11.90;79.90;;;;;;4853262;29;20060;-69
2021/08/27 05:35:15;;;;;;;12.00;2.75;;;11.80;77.90;;;;;;4855099;29;20504;-64
2021/08/27 05:37:43;;;;;;;8.60;2.58;;;11.80;78.90;;;;;;4850812;29;20577;-63
2021/08/27 05:40:10;;;;;;;5.22;1.90;;;11.80;78.50;;;;;;4854556;29;20760;-67
2021/08/27 05:42:39;;;;;;;8.13;2.08;;;11.60;73.50;;;;;;4853136;29;20036;-64
2021/08/27 05:45:06;;;;;;;4.47;1.02;;;11.60;73.50;;;;;;4850009;29;20022;-64
2021/08/27 05:47:33;;;;;;;6.18;1.40;;;11.60;74.70;;;;;;4856157;29;20028;-62
2021/08/27 05:49:59;;;;;;;4.95;0.88;;;11.50;74.90;;;;;;4858014;29;20029;-62
2021/08/27 05:52:27;;;;;;;5.13;1.52;;;11.40;75.80;;;;;;4855496;29;20053;-62
2021/08/27 05:54:53;;;;;;;6.18;2.05;;;11.40;76.40;;;;;;4857044;29;20041;-66
2021/08/27 05:57:20;;;;;;;12.18;2.40;;;11.40;75.80;;;;;;4873967;29;20025;-62
2021/08/27 05:59:46;;;;;;;10.38;2.83;;;11.40;76.20;;;;;;4878461;29;20021;-63
2021/08/27 06:02:13;;;;;;;5.47;2.45;;;11.40;75.00;;;;;;4871850;29;20470;-64
2021/08/27 06:04:39;;;;;;;9.80;2.92;;;11.50;75.30;;;;;;4877606;29;20393;-65
2021/08/27 06:07:06;;;;;;;8.05;1.67;;;11.50;72.80;;;;;;4873049;29;20076;-65
2021/08/27 06:09:32;;;;;;;16.67;2.42;;;11.50;74.80;;;;;;4875652;29;20032;-61
2021/08/27 06:11:59;;;;;;;7.35;1.48;;;11.50;75.40;;;;;;4874859;29;20028;-63
2021/08/27 06:14:25;;;;;;;13.27;2.83;;;11.50;74.00;;;;;;4877974;29;20033;-66
2021/08/27 06:16:51;;;;;;;10.35;2.63;;;11.60;73.70;;;;;;4873407;29;20033;-67
2021/08/27 06:19:18;;;;;;;6.38;1.95;;;11.60;70.80;;;;;;4874028;29;20032;-65
2021/08/27 06:21:44;;;;;;;8.27;1.70;;;11.60;72.40;;;;;;4873069;29;20751;-65
2021/08/27 06:24:11;;;;;;;7.95;1.58;;;11.60;68.60;;;;;;4876757;29;20049;-65
2021/08/27 06:26:37;;;;;;;9.07;1.73;;;11.60;67.10;;;;;;4874244;29;20021;-66
2021/08/27 06:29:05;;;;;;;5.18;1.10;;;11.60;67.10;;;;;;4875872;29;20675;-65
2021/08/27 06:31:33;;;;;;;4.13;1.10;;;11.60;66.20;;;;;;4877250;29;20041;-65
2021/08/27 06:33:59;;;;;;;6.72;2.50;;;11.60;66.70;;;;;;4872486;29;20618;-65
2021/08/27 06:36:26;;;;;;;5.55;0.90;;;11.60;66.50;;;;;;4872836;29;20028;-66
2021/08/27 06:38:52;;;;;;;7.45;1.15;;;11.60;63.00;;;;;;4875487;29;20017;-62
2021/08/27 06:41:19;;;;;;;7.38;1.70;;;11.60;63.50;;;;;;4876619;29;20020;-66
2021/08/27 06:43:46;;;;;;;6.10;1.60;;;11.60;65.00;;;;;;4875573;29;20089;-65
2021/08/27 06:46:21;;;;;;;4.88;1.20;;;11.60;63.10;;;;;;4873157;29;20513;-64
2021/08/27 06:48:49;;;;;;;4.07;0.77;;;11.60;65.20;;;;;;4868317;29;20373;-65
2021/08/27 06:51:15;;;;;;;5.20;1.45;;;11.60;60.60;;;;;;4871527;29;20241;-66
2021/08/27 06:53:42;;;;;;;6.45;1.33;;;11.60;60.70;;;;;;4871266;29;20058;-63
2021/08/27 06:56:08;;;;;;;7.43;1.55;;;11.60;61.20;;;;;;4876027;29;20061;-68
2021/08/27 06:58:35;;;;;;;7.90;1.80;;;11.60;62.70;;;;;;4872198;29;20033;-65
2021/08/27 07:01:02;;;;;;;6.90;1.02;;;11.70;62.90;;;;;;4877773;29;20029;-62
2021/08/27 07:03:29;;;;;;;9.30;1.70;;;11.70;61.50;;;;;;4875630;29;20033;-65
2021/08/27 07:05:56;;;;;;;4.70;1.63;;;11.70;61.90;;;;;;4876940;29;20025;-64
2021/08/27 07:08:23;;;;;;;2.65;1.13;;;11.80;63.90;;;;;;4875549;29;20088;-67
2021/08/27 07:10:49;;;;;;;6.70;2.55;;;11.80;63.80;;;;;;4874853;29;20048;-63
2021/08/27 07:13:16;;;;;;;4.47;1.17;;;11.80;62.40;;;;;;4876826;29;20112;-62
2021/08/27 07:15:43;;;;;;;7.25;1.40;;;11.80;60.50;;;;;;4876076;29;20476;-62
2021/08/27 07:18:09;;;;;;;6.28;1.05;;;11.90;63.10;;;;;;4872241;29;20033;-66
2021/08/27 07:20:37;;;;;;;3.15;0.68;;;11.80;59.80;;;;;;4865589;29;20033;-67
2021/08/27 07:23:04;;;;;;;5.30;1.00;;;11.80;57.30;;;;;;4875504;29;20116;-67
2021/08/27 07:25:31;;;;;;;17.63;2.38;;;11.80;56.80;;;;;;4874980;29;20918;-66
2021/08/27 07:27:58;;;;;;;15.02;3.63;;;11.80;58.20;;;;;;4873952;29;20155;-66
2021/08/27 07:30:24;;;;;;;12.68;3.50;;;11.70;66.60;;;;;;4876691;29;20024;-62
2021/08/27 07:32:51;;;;;;;10.48;2.22;;;11.50;66.90;;;;;;4875676;29;20075;-62
2021/08/27 07:35:17;;;;;;;11.38;2.85;;;11.40;67.80;;;;;;4869344;29;20045;-66
2021/08/27 07:37:44;;;;;;;13.95;3.35;;;11.40;67.20;;;;;;4869230;29;20079;-67
2021/08/27 07:40:14;;;;;;;8.43;2.80;;;11.40;66.20;;;;;;4875546;29;20040;-63
2021/08/27 07:42:41;;;;;;;8.23;2.08;;;11.40;67.90;;;;;;4873264;29;20024;-64
2021/08/27 07:45:09;;;;;;;5.65;1.98;;;11.40;64.50;;;;;;4875866;29;20028;-64
2021/08/27 07:47:36;;;;;;;8.75;1.35;;;11.40;65.20;;;;;;4874180;29;20906;-64
2021/08/27 07:50:05;;;;;;;4.47;1.60;;;11.40;63.20;;;;;;4874702;29;20036;-64
2021/08/27 07:52:31;;;;;;;5.60;1.17;;;11.50;62.20;;;;;;4876365;29;20593;-66
2021/08/27 07:54:58;;;;;;;9.10;1.83;;;11.50;61.30;;;;;;4874045;29;20040;-69
2021/08/27 07:57:24;;;;;;;18.10;4.93;;;11.50;62.90;;;;;;4871886;29;20017;-62
2021/08/27 07:59:51;;;;;;;9.45;3.15;;;11.50;65.90;;;;;;4871816;29;20025;-63
2021/08/27 08:02:17;;;;;;;9.25;1.38;;;11.60;66.70;;;;;;4874075;29;20032;-64
2021/08/27 08:04:44;;;;;;;6.97;2.38;;;11.60;65.30;;;;;;4875571;29;20072;-68
2021/08/27 08:07:10;;;;;;;7.70;1.70;;;11.70;66.00;;;;;;4873294;29;20023;-65
2021/08/27 08:09:37;;;;;;;6.30;1.67;;;11.80;66.20;;;;;;4874373;29;20473;-67
2021/08/27 08:12:04;;;;;;;4.25;1.70;;;11.90;66.50;;;;;;4867829;29;20078;-67
2021/08/27 08:14:31;;;;;;;4.43;1.80;;;12.00;66.50;;;;;;4874258;29;20116;-66
2021/08/27 08:16:57;;;;;;;2.53;1.42;;;12.10;66.20;;;;;;4874936;29;20108;-65
2021/08/27 08:19:24;;;;;;;5.90;1.27;;;12.20;65.10;;;;;;4874622;29;20032;-65
2021/08/27 08:21:50;;;;;;;6.10;1.63;;;12.30;63.90;;;;;;4874830;29;20112;-64
2021/08/27 08:24:17;;;;;;;4.85;1.90;;;12.30;61.30;;;;;;4873349;29;20056;-69
2021/08/27 08:26:43;;;;;;;8.15;1.77;;;12.40;61.30;;;;;;4874974;29;20025;-69
2021/08/27 08:29:10;;;;;;;8.95;2.08;;;12.40;61.30;;;;;;4871410;29;20025;-70
2021/08/27 08:31:36;;;;;;;12.35;2.10;;;12.40;61.90;;;;;;4875063;29;20025;-65
2021/08/27 08:34:03;;;;;;;10.40;1.77;;;12.50;61.90;;;;;;4870135;29;20033;-64
2021/08/27 08:36:29;;;;;;;5.60;1.67;;;12.60;60.80;;;;;;4873170;29;20053;-66
2021/08/27 08:38:56;;;;;;;6.20;1.83;;;12.60;61.60;;;;;;4869696;29;20028;-71
2021/08/27 08:41:22;;;;;;;10.65;3.33;;;12.70;62.60;;;;;;4869605;29;20381;-67
2021/08/27 08:43:50;;;;;;;5.65;2.03;;;12.70;63.10;;;;;;4872792;29;20355;-66
2021/08/27 08:46:17;;;;;;;10.77;2.47;;;12.80;63.70;;;;;;4874721;29;20093;-64
2021/08/27 08:48:49;;;;;;;6.53;1.45;;;12.90;62.40;;;;;;4875442;29;20476;-65
2021/08/27 08:51:17;;;;;;;10.13;2.90;;;12.90;62.20;;;;;;4868569;29;20025;-67
2021/08/27 08:53:49;;;;;;;6.38;1.63;;;13.00;62.20;;;;;;4857983;29;20040;-63
2021/08/27 08:56:17;;;;;;;6.00;1.98;;;13.10;60.80;;;;;;4872768;29;20053;-67
2021/08/27 08:58:44;;;;;;;6.68;1.92;;;13.20;60.60;;;;;;4874381;29;20085;-64
2021/08/27 09:01:17;;;;;;;9.70;1.45;;;13.20;58.60;;;;;;4866501;29;20021;-65
2021/08/27 09:03:47;;;;;;;5.80;1.45;;;13.30;57.90;;;;;;4869978;29;20373;-66
2021/08/27 09:06:14;;;;;;;4.55;1.45;;;13.40;56.30;;;;;;4871038;29;20029;-63
2021/08/27 09:08:46;;;;;;;5.32;1.38;;;13.40;54.90;;;;;;4872488;29;20025;-67
2021/08/27 09:11:23;;;;;;;7.03;1.52;;;13.40;54.50;;;;;;4872999;29;20051;-64
2021/08/27 09:14:02;;;;;;;10.00;1.70;;;13.30;50.80;;;;;;4874709;29;20426;-65
2021/08/27 09:16:33;;;;;;;3.40;1.10;;;13.30;49.60;;;;;;4856985;29;20575;-69
2021/08/27 09:19:01;;;;;;;3.75;1.52;;;13.40;51.90;;;;;;4874997;29;20098;-65
2021/08/27 09:21:37;;;;;;;3.55;1.00;;;13.40;50.50;;;;;;4871155;29;20062;-66
2021/08/27 09:24:14;;;;;;;3.80;1.30;;;13.50;50.60;;;;;;4874003;29;20025;-63
2021/08/27 09:26:42;;;;;;;5.15;1.10;;;13.70;51.40;;;;;;4871581;29;20029;-67
2021/08/27 09:29:09;;;;;;;5.45;1.50;;;13.80;51.70;;;;;;4861475;29;20029;-66
2021/08/27 09:31:38;;;;;;;4.05;1.08;;;13.80;51.20;;;;;;4873903;29;20028;-66
2021/08/27 09:34:06;;;;;;;5.03;1.38;;;13.80;51.20;;;;;;4872802;29;20039;-70
2021/08/27 09:36:34;;;;;;;3.97;1.45;;;13.80;51.20;;;;;;4873962;29;20102;-67
2021/08/27 09:39:11;;;;;;;5.72;1.88;;;13.90;51.90;;;;;;4872158;29;20104;-63
2021/08/27 09:41:55;;;;;;;5.07;1.13;;;13.90;51.30;;;;;;4873562;29;20029;-70
2021/08/27 09:44:23;;;;;;;5.13;1.30;;;14.10;51.90;;;;;;4873272;29;20123;-63
2021/08/27 09:46:49;;;;;;;6.22;1.65;;;14.20;51.80;;;;;;4873936;29;20017;-67
2021/08/27 09:49:32;;;;;;;7.43;1.40;;;14.20;54.30;;;;;;4872238;29;20053;-67
2021/08/27 09:52:01;;;;;;;6.15;0.90;;;14.10;55.70;;;;;;4868463;29;20025;-65
2021/08/27 09:54:30;;;;;;;3.13;1.30;;;13.80;56.90;;;;;;4873878;29;20546;-66
2021/08/27 09:56:59;;;;;;;6.40;1.35;;;13.50;59.40;;;;;;4873539;29;20514;-66
2021/08/27 09:59:47;;;;;;;2.15;0.85;;;13.30;60.00;;;;;;4872008;29;20381;-67
2021/08/27 10:02:25;;;;;;;4.78;1.35;;;13.10;58.10;;;;;;4868452;29;20473;-65
2021/08/27 10:05:00;;;;;;;2.88;1.50;;;13.00;60.10;;;;;;4868102;29;20033;-64
2021/08/27 10:07:45;;;;;;;4.15;1.10;;;12.90;60.20;;;;;;4872076;29;20040;-68
2021/08/27 10:10:14;;;;;;;6.72;1.10;;;12.90;58.20;;;;;;4868893;29;20032;-64
2021/08/27 10:12:46;;;;;;;2.75;0.70;;;12.90;59.40;;;;;;4871126;29;20021;-65
2021/08/27 10:15:12;;;;;;;6.90;1.90;;;13.00;56.70;;;;;;4868893;29;20041;-66
2021/08/27 10:17:41;;;;;;;6.05;1.27;;;13.30;56.80;;;;;;4873101;29;20029;-64
2021/08/27 10:20:10;;;;;;;2.20;0.95;;;13.50;57.10;;;;;;4857346;29;20064;-67
2021/08/27 10:22:41;;;;;;;3.17;1.35;;;13.70;54.00;;;;;;4869662;29;20021;-66
2021/08/27 10:25:12;;;;;;;19.45;1.30;;;13.90;50.20;;;;;;4872010;29;20014;-68
2021/08/27 10:27:40;;;;;;;5.05;1.30;;;14.00;49.40;;;;;;4868587;29;20377;-66
2021/08/27 10:30:07;;;;;;;3.50;1.23;;;13.90;50.00;;;;;;4873145;29;20081;-66
2021/08/27 10:32:40;;;;;;;3.75;1.33;;;14.00;50.90;;;;;;4873047;29;20397;-64
2021/08/27 10:35:34;;;;;;;4.75;1.08;;;14.10;50.90;;;;;;4874467;29;20419;-64
2021/08/27 10:38:01;;;;;;;6.63;1.77;;;14.20;52.70;;;;;;4871803;29;20571;-64
2021/08/27 10:40:28;;;;;;;6.22;1.00;;;14.40;52.60;;;;;;4877210;29;20449;-66
2021/08/27 10:43:02;;;;;;;6.03;0.80;;;14.50;51.30;;;;;;4874481;29;20059;-66
2021/08/27 10:45:47;;;;;;;7.70;1.90;;;14.70;51.90;;;;;;4859371;29;20078;-66
2021/08/27 10:48:24;;;;;;;4.78;1.10;;;14.90;52.50;;;;;;4875634;29;20027;-64
2021/08/27 10:50:54;;;;;;;7.57;1.52;;;15.00;51.80;;;;;;4877649;29;20104;-65
2021/08/27 10:53:32;;;;;;;5.68;1.63;;;15.00;51.10;;;;;;4873487;29;20028;-63
2021/08/27 10:56:28;;;;;;;2.70;1.27;;;15.10;50.80;;;;;;4868046;29;20041;-63
2021/08/27 10:58:55;;;;;;;4.75;1.10;;;15.10;49.50;;;;;;4876757;29;20121;-67
2021/08/27 11:01:38;;;;;;;7.38;2.42;;;15.20;51.80;;;;;;4872035;29;20025;-67
2021/08/27 11:04:08;;;;;;;4.63;1.77;;;15.20;52.40;;;;;;4873780;29;20419;-64
2021/08/27 11:06:54;;;;;;;4.65;1.98;;;15.10;53.10;;;;;;4873853;29;20021;-67
2021/08/27 11:09:25;;;;;;;;;;;15.10;54.30;;;;;;4874160;29;20026;-67
2021/08/27 11:12:19;;;;;;;6.30;1.27;;;15.00;50.80;;;;;;4876474;29;19939;-66
2021/08/27 11:14:51;;;;;;;4.22;1.60;;;14.90;52.40;;;;;;4875325;29;20567;-64
2021/08/27 11:17:17;;;;;;;8.35;2.20;;;14.80;54.60;;;;;;4875515;29;20017;-64
2021/08/27 11:19:59;;;;;;;4.03;1.58;;;14.80;56.30;;;;;;4874571;29;20032;-66
2021/08/27 11:22:32;;;;;;;6.65;1.90;;;14.60;56.10;;;;;;4873393;29;20177;-66
2021/08/27 11:25:05;;;;;;;5.57;1.60;;;14.40;57.00;;;;;;4874244;29;20063;-65
2021/08/27 11:27:33;;;;;;;11.25;2.03;;;14.40;58.20;;;;;;4870940;29;20485;-64
2021/08/27 11:30:28;;;;;;;7.43;1.80;;;14.50;59.00;;;;;;4873785;29;20021;-69
2021/08/27 11:33:33;;;;;;;11.13;2.92;;;14.50;59.30;;;;;;4872192;29;20025;-67
2021/08/27 11:36:41;;;;;;;6.20;1.75;;;14.70;58.80;;;;;;4874740;29;20048;-66
2021/08/27 11:39:47;;;;;;;4.70;1.77;;;14.90;58.50;;;;;;4871968;29;20536;-66
2021/08/27 11:42:55;;;;;;;5.90;1.40;;;15.10;57.40;;;;;;4875426;29;20440;-68
2021/08/27 11:46:01;;;;;;;10.50;2.42;;;15.30;57.00;;;;;;4874669;29;20035;-67
2021/08/27 11:49:07;;;;;;;19.52;3.10;;;15.60;57.40;;;;;;4873023;29;20044;-70
2021/08/27 11:52:25;;;;;;;19.85;3.08;;;15.60;57.00;;;;;;4869762;29;20029;-72
2021/08/27 11:55:32;;;;;;;5.93;1.75;;;15.70;57.30;;;;;;4871797;29;20044;-70
2021/08/27 11:58:41;;;;;;;7.15;1.38;;;15.80;55.20;;;;;;4869859;29;20366;-65
2021/08/27 12:01:47;;;;;;;2.47;0.93;;;15.80;54.20;;;;;;4870947;29;20025;-69
2021/08/27 12:04:31;;;;;;;5.55;1.52;;;15.90;52.50;;;;;;4868944;29;20037;-66
2021/08/27 12:07:11;;;;;;;4.53;0.80;;;16.00;53.10;;;;;;4872643;29;20029;-68
2021/08/27 12:09:38;;;;;;;1.55;0.93;;;16.10;52.00;;;;;;4867783;29;20373;-67
2021/08/27 12:12:06;;;;;;;6.70;1.10;;;16.20;50.90;;;;;;4857908;29;20037;-71
2021/08/27 12:14:52;;;;;;;5.45;1.05;;;16.40;48.20;;;;;;4868528;29;20572;-66
2021/08/27 12:17:27;;;;;;;10.77;1.63;;;16.40;47.00;;;;;;4874903;29;20033;-71
2021/08/27 12:19:56;;;;;;;4.57;0.70;;;16.60;46.70;;;;;;4871451;29;20072;-70
2021/08/27 12:22:28;;;;;;;4.15;1.23;;;16.50;45.00;;;;;;4872857;29;20486;-70
2021/08/27 12:24:55;;;;;;;4.45;0.60;;;16.60;46.20;;;;;;4873374;29;20036;-70
2021/08/27 12:27:23;;;;;;;4.63;1.13;;;16.70;46.20;;;;;;4871389;29;20545;-73
2021/08/27 12:30:10;;;;;;;5.72;0.95;;;16.70;47.30;;;;;;4870373;29;20018;-70
2021/08/27 12:32:39;;;;;;;3.67;1.25;;;16.80;48.30;;;;;;4873209;29;20601;-67
2021/08/27 12:35:11;;;;;;;5.22;1.38;;;16.70;49.30;;;;;;4873592;29;20124;-68
2021/08/27 12:37:39;;;;;;;5.00;1.63;;;16.80;49.50;;;;;;4868726;29;20036;-70
2021/08/27 12:40:12;;;;;;;3.92;0.82;;;16.70;49.60;;;;;;4873992;29;20523;-67
2021/08/27 12:42:40;;;;;;;4.10;0.93;;;16.80;50.50;;;;;;4870501;29;20124;-68
2021/08/27 12:45:46;;;;;;;6.00;1.38;;;16.80;49.30;;;;;;4874634;29;20068;-63
2021/08/27 12:48:52;;;;;;;7.00;1.23;;;16.90;49.40;;;;;;4873195;29;20080;-64
2021/08/27 12:52:02;;;;;;;3.55;1.15;;;16.80;50.00;;;;;;4872009;29;20032;-64
2021/08/27 12:55:08;;;;;;;4.35;1.10;;;16.90;49.80;;;;;;4873442;29;20072;-65
2021/08/27 12:58:14;;;;;;;8.20;1.92;;;17.00;49.70;;;;;;4871056;29;20115;-63
2021/08/27 13:01:32;;;;;;;13.68;1.58;;;17.00;48.80;;;;;;4869824;29;20036;-64
2021/08/27 13:04:38;;;;;;;6.50;1.33;;;16.90;47.90;;;;;;4839015;29;20048;-63
2021/08/27 13:07:31;;;;;;;22.15;4.07;;;16.90;47.90;;;;;;4871121;29;20125;-63
2021/08/27 13:10:10;;;;;;;6.75;1.50;;;17.10;49.80;;;;;;4873627;29;20032;-64
2021/08/27 13:12:37;;;;;;;11.25;1.23;;;17.00;47.40;;;;;;4873145;29;20089;-64
2021/08/27 13:15:14;;;;;;;11.77;1.10;;;16.90;46.80;;;;;;4866841;29;20144;-65